createdAt,value
2018-04-14T10:31:52.997Z,52.50
2018-04-14T10:34:23.904Z,51.10
2018-04-14T10:37:16.643Z,48.00
2018-04-14T10:39:48.116Z,43.60
2018-04-14T10:42:19.763Z,39.00
2018-04-14T10:44:59.508Z,39.10
2018-04-14T10:47:35.856Z,40.90
2018-04-14T10:50:06.083Z,40.90
2018-04-14T10:52:38.698Z,41.40
2018-04-14T10:55:10.260Z,39.40
2018-04-14T10:57:41.675Z,36.80
2018-04-14T11:00:12.831Z,36.80
2018-04-14T11:02:52.072Z,34.00
2018-04-14T11:08:14.808Z,34.50
2018-04-14T11:10:44.648Z,36.00
2018-04-14T11:13:17.231Z,39.40
2018-04-14T11:15:48.291Z,39.30
2018-04-14T11:18:20.246Z,38.40
2018-04-14T11:20:52.478Z,35.70
2018-04-14T11:23:24.405Z,35.60
2018-04-14T11:25:54.042Z,36.70
2018-04-14T11:28:23.703Z,39.10
2018-04-14T11:30:53.788Z,39.50
2018-04-14T11:33:29.422Z,36.70
2018-04-14T11:36:07.037Z,36.60
2018-04-14T11:38:39.328Z,38.60
2018-04-14T11:41:10.781Z,38.60
2018-04-14T11:43:42.833Z,39.40
2018-04-14T11:46:12.218Z,41.00
2018-04-14T11:48:44.683Z,42.20
2018-04-14T11:51:14.019Z,43.30
2018-04-14T11:53:50.346Z,41.80
2018-04-14T11:56:22.838Z,41.70
2018-04-14T11:58:55.206Z,41.50
2018-04-14T12:01:27.518Z,42.30
2018-04-14T12:03:57.941Z,42.30
2018-04-14T12:06:30.900Z,41.20
2018-04-14T12:09:00.823Z,40.30
2018-04-14T12:11:34.392Z,42.10
2018-04-14T12:14:04.462Z,42.10
2018-04-14T12:16:38.632Z,43.40
2018-04-14T12:19:09.739Z,42.30
2018-04-14T12:21:42.582Z,42.20
2018-04-14T12:24:14.687Z,40.80
2018-04-14T12:26:46.494Z,38.80
2018-04-14T12:29:18.367Z,37.00
2018-04-14T12:31:49.581Z,36.90
2018-04-14T12:34:21.234Z,36.80
2018-04-14T12:36:51.042Z,36.70
2018-04-14T12:39:21.734Z,38.70
2018-04-14T12:41:52.559Z,39.40
2018-04-14T12:44:23.288Z,41.80
2018-04-14T12:46:56.553Z,44.90
2018-04-14T12:49:27.916Z,44.90
2018-04-14T12:51:59.483Z,47.70
2018-04-14T12:54:30.786Z,47.00
2018-04-14T12:57:01.652Z,47.00
2018-04-14T12:59:35.456Z,46.00
2018-04-14T13:02:05.793Z,45.40
2018-04-14T13:04:35.892Z,43.70
2018-04-14T13:07:12.732Z,42.70
2018-04-14T13:09:47.118Z,40.30
2018-04-14T13:12:17.725Z,40.20
2018-04-14T13:14:53.953Z,39.30
2018-04-14T13:17:31.699Z,38.60
2018-04-14T13:20:04.272Z,38.60
2018-04-14T13:22:35.884Z,37.60
2018-04-14T13:25:12.514Z,37.80
2018-04-14T13:27:45.033Z,37.20
2018-04-14T13:30:14.688Z,40.40
2018-04-14T13:32:46.078Z,42.30
2018-04-14T13:35:19.007Z,42.30
2018-04-14T13:37:50.745Z,44.50
2018-04-14T13:40:25.757Z,45.70
2018-04-14T13:42:55.676Z,44.90
2018-04-14T13:45:25.493Z,45.10
2018-04-14T13:47:56.071Z,47.50
2018-04-14T13:50:26.424Z,48.90
2018-04-14T13:52:57.772Z,49.40
2018-04-14T13:55:33.742Z,46.80
2018-04-14T13:58:11.226Z,46.80
2018-04-14T14:00:45.480Z,46.40
2018-04-14T14:03:22.870Z,47.70
2018-04-14T14:05:54.825Z,49.70
2018-04-14T14:08:34.423Z,49.20
2018-04-14T14:11:06.515Z,49.20
2018-04-14T14:13:38.621Z,49.30
2018-04-14T14:19:01.932Z,50.30
2018-04-14T14:21:41.914Z,51.80
2018-04-14T14:27:19.834Z,53.20
2018-04-14T14:30:05.644Z,54.40
2018-04-14T14:32:47.080Z,54.40
2018-04-14T14:35:28.946Z,54.30
2018-04-14T14:37:59.793Z,54.50
2018-04-14T14:40:35.123Z,54.70
2018-04-14T14:43:11.184Z,55.10
2018-04-14T14:45:42.580Z,56.20
2018-04-14T14:48:14.795Z,55.60
2018-04-14T14:50:44.739Z,56.10
2018-04-14T14:53:21.348Z,56.00
2018-04-14T14:55:57.046Z,58.20
2018-04-14T14:58:41.081Z,58.50
2018-04-14T15:01:12.223Z,59.00
2018-04-14T15:03:48.371Z,61.00
2018-04-14T15:06:20.937Z,61.00
2018-04-14T15:08:53.539Z,60.20
2018-04-14T15:11:23.766Z,59.40
2018-04-14T15:13:55.220Z,59.60
2018-04-14T15:16:29.562Z,59.60
2018-04-14T15:19:07.587Z,58.50
2018-04-14T15:21:38.134Z,57.80
2018-04-14T15:24:15.720Z,56.60
2018-04-14T15:26:48.213Z,56.80
2018-04-14T15:29:26.394Z,58.60
2018-04-14T15:31:57.485Z,60.70
2018-04-14T15:34:33.057Z,60.50
2018-04-14T15:37:05.431Z,60.00
2018-04-14T15:39:35.422Z,60.00
2018-04-14T15:42:08.639Z,59.40
2018-04-14T15:44:45.101Z,58.80
2018-04-14T15:47:22.087Z,60.00
2018-04-14T15:49:54.336Z,60.00
2018-04-14T15:52:25.475Z,62.30
2018-04-14T15:54:57.902Z,62.30
2018-04-14T15:57:30.843Z,62.90
2018-04-14T16:00:11.337Z,62.70
2018-04-14T16:02:44.858Z,62.30
2018-04-14T16:05:21.673Z,62.70
2018-04-14T16:08:04.112Z,61.80
2018-04-14T16:10:38.825Z,62.10
2018-04-14T16:13:10.154Z,61.90
2018-04-14T16:15:48.470Z,62.70
2018-04-14T16:18:20.775Z,63.00
2018-04-14T16:20:52.867Z,62.90
2018-04-14T16:23:25.030Z,63.30
2018-04-14T16:26:00.495Z,63.30
2018-04-14T16:28:38.860Z,63.00
2018-04-14T16:31:13.995Z,63.30
2018-04-14T16:33:51.808Z,62.50
2018-04-14T16:36:40.859Z,60.80
2018-04-14T16:39:14.913Z,60.80
2018-04-14T16:41:57.348Z,60.90
2018-04-14T16:44:28.648Z,61.40
2018-04-14T16:47:10.188Z,61.30
2018-04-14T16:49:52.989Z,61.50
2018-04-14T16:52:25.005Z,62.20
2018-04-14T16:54:59.358Z,62.20
2018-04-14T16:57:30.755Z,62.20
2018-04-14T17:00:05.141Z,62.10
2018-04-14T17:02:47.980Z,62.20
2018-04-14T17:05:22.645Z,61.80
2018-04-14T17:07:57.360Z,62.50
2018-04-14T17:10:39.312Z,62.20
2018-04-14T17:13:13.924Z,61.70
2018-04-14T17:15:48.048Z,61.70
2018-04-14T17:18:19.532Z,61.50
2018-04-14T17:20:57.218Z,62.30
2018-04-14T17:23:29.287Z,62.70
2018-04-14T17:26:00.492Z,62.70
2018-04-14T17:28:33.671Z,62.70
2018-04-14T17:31:06.878Z,63.10
2018-04-14T17:33:39.702Z,64.40
2018-04-14T17:36:20.431Z,65.00
2018-04-14T17:38:54.050Z,63.60
2018-04-14T17:41:28.971Z,63.70
2018-04-14T17:44:09.960Z,63.20
2018-04-14T17:46:41.665Z,63.30
2018-04-14T17:49:16.965Z,63.60
2018-04-14T17:51:49.933Z,64.00
2018-04-14T17:54:31.313Z,63.80
2018-04-14T17:57:16.356Z,63.90
2018-04-14T17:59:49.096Z,63.40
2018-04-14T18:02:25.009Z,64.70
2018-04-14T18:05:01.001Z,64.70
2018-04-14T18:07:32.248Z,65.40
2018-04-14T18:10:09.174Z,66.00
2018-04-14T18:12:41.325Z,66.10
2018-04-14T18:15:17.109Z,67.10
2018-04-14T18:18:02.910Z,67.00
2018-04-14T18:20:39.193Z,66.50
2018-04-14T18:23:24.177Z,66.40
2018-04-14T18:26:32.419Z,66.20
2018-04-14T18:29:10.556Z,66.00
2018-04-14T18:31:45.778Z,65.90
2018-04-14T18:34:20.919Z,65.70
2018-04-14T18:37:00.916Z,65.70
2018-04-14T18:39:37.684Z,65.70
2018-04-14T18:42:29.422Z,65.60
2018-04-14T18:45:19.875Z,64.80
2018-04-14T18:48:08.145Z,64.70
2018-04-14T18:53:59.216Z,65.10
2018-04-14T18:56:49.212Z,65.10
2018-04-14T18:59:39.931Z,64.90
2018-04-14T19:02:24.006Z,64.80
2018-04-14T19:05:17.990Z,64.80
2018-04-14T19:08:04.595Z,64.40
2018-04-14T19:10:47.243Z,65.20
2018-04-14T19:13:18.883Z,65.70
2018-04-14T19:15:50.144Z,65.30
2018-04-14T19:18:22.907Z,65.20
2018-04-14T19:20:55.290Z,64.40
2018-04-14T19:23:28.012Z,64.50
2018-04-14T19:26:01.366Z,64.50
2018-04-14T19:28:33.881Z,64.50
2018-04-14T19:31:27.661Z,64.40
2018-04-14T19:34:01.648Z,64.00
2018-04-14T19:36:37.201Z,64.20
2018-04-14T19:39:11.873Z,64.60
2018-04-14T19:41:58.540Z,65.00
2018-04-14T19:44:38.579Z,64.50
2018-04-14T19:47:33.393Z,65.20
2018-04-14T19:50:21.229Z,65.00
2018-04-14T19:53:04.997Z,65.50
2018-04-14T19:55:36.350Z,65.90
2018-04-14T19:58:12.036Z,66.40
2018-04-14T20:00:53.355Z,66.40
2018-04-14T20:03:28.687Z,66.20
2018-04-14T20:06:04.868Z,66.70
2018-04-14T20:08:40.865Z,66.30
2018-04-14T20:11:14.611Z,66.30
2018-04-14T20:13:51.065Z,66.30
2018-04-14T20:16:25.524Z,66.80
2018-04-14T20:19:03.575Z,67.50
2018-04-14T20:24:27.214Z,67.10
2018-04-14T20:27:15.040Z,67.00
2018-04-14T20:29:52.700Z,67.20
2018-04-14T20:32:26.623Z,67.30
2018-04-14T20:35:01.827Z,67.40
2018-04-14T20:37:41.766Z,67.30
2018-04-14T20:40:20.796Z,67.40
2018-04-14T20:42:55.020Z,67.80
2018-04-14T20:45:29.590Z,67.70
2018-04-14T20:48:32.798Z,67.40
2018-04-14T20:51:09.885Z,68.00
2018-04-14T20:54:04.357Z,68.90
2018-04-14T20:56:42.262Z,69.20
2018-04-14T20:59:27.967Z,69.20
2018-04-14T21:02:12.305Z,68.40
2018-04-14T21:04:46.799Z,68.40
2018-04-14T21:07:20.836Z,68.50
2018-04-14T21:10:09.104Z,68.30
2018-04-14T21:12:50.509Z,68.10
2018-04-14T21:15:23.145Z,67.80
2018-04-14T21:17:54.746Z,67.80
2018-04-14T21:23:33.726Z,66.90
2018-04-14T21:26:08.303Z,66.90
2018-04-14T21:28:40.419Z,67.00
2018-04-14T21:31:11.557Z,67.10
2018-04-14T21:33:49.155Z,67.90
2018-04-14T21:36:22.827Z,68.50
2018-04-14T21:39:09.651Z,68.60
2018-04-14T21:41:46.773Z,68.80
2018-04-14T21:44:26.165Z,68.70
2018-04-14T21:47:22.905Z,69.60
2018-04-14T21:49:56.494Z,69.70
2018-04-14T21:52:35.541Z,70.10
2018-04-14T21:55:07.084Z,70.10
2018-04-14T21:57:38.188Z,70.70
2018-04-14T22:00:10.953Z,70.60
2018-04-14T22:02:45.522Z,70.80
2018-04-14T22:05:16.478Z,71.20
2018-04-14T22:07:55.347Z,72.50
2018-04-14T22:10:46.204Z,72.80
2018-04-14T22:13:37.696Z,73.30
2018-04-14T22:16:25.707Z,75.30
2018-04-14T22:19:04.151Z,75.20
2018-04-14T22:21:39.689Z,77.40
2018-04-14T22:24:17.084Z,77.30
2018-04-14T22:26:54.757Z,78.10
2018-04-14T22:29:42.286Z,77.90
2018-04-14T22:32:22.831Z,78.80
2018-04-14T22:35:13.437Z,80.10
2018-04-14T22:37:49.315Z,80.10
2018-04-14T22:40:49.843Z,79.90
2018-04-14T22:43:44.275Z,80.00
2018-04-14T22:46:25.950Z,80.70
2018-04-14T22:48:58.991Z,82.30
2018-04-14T22:51:37.439Z,83.30
2018-04-14T22:54:19.321Z,84.60
2018-04-14T22:57:02.673Z,87.50
2018-04-14T22:59:35.126Z,87.40
2018-04-14T23:02:08.138Z,88.80
2018-04-14T23:04:48.725Z,88.30
2018-04-14T23:07:27.807Z,88.30
2018-04-14T23:10:08.288Z,88.50
2018-04-14T23:12:41.217Z,88.30
2018-04-14T23:15:15.294Z,89.20
2018-04-14T23:17:59.683Z,89.70
2018-04-14T23:20:32.197Z,90.60
2018-04-14T23:23:06.917Z,90.50
2018-04-14T23:25:47.754Z,90.50
2018-04-14T23:28:21.526Z,91.10
2018-04-14T23:31:00.141Z,91.20
2018-04-14T23:33:31.808Z,91.60
2018-04-14T23:36:03.127Z,91.60
2018-04-14T23:38:35.779Z,91.80
2018-04-14T23:41:07.379Z,92.90
2018-04-14T23:43:39.703Z,93.30
2018-04-14T23:46:12.236Z,94.40
2018-04-14T23:48:43.870Z,94.60
2018-04-14T23:51:15.185Z,96.00
2018-04-14T23:53:47.605Z,96.00
2018-04-14T23:56:23.444Z,96.70
2018-04-14T23:58:54.827Z,97.40
